KAJO

Corona Municipal Airport

Corona, California, USA
METAR KAJO 211956Z AUTO 00000KT 10SM CLR 16/M03 A3028 RMK AO2 SLP269 T01561028
Observed Flight Rules
Jan-21 @ 19:56 UTC (23 minutes ago) Visual Flight Rules
Wind Visibility Clouds
Calm 10 miles
  • Clear skies
Temperatures Readings
Current 16°C / 61°F
Dewpoint -3°C / 27°F
Humidity 27%
Altimeter 30.28" Hg
Pressure 1026.9 hPa
Elevation 163
METAR KAJO 211956Z AUTO 00000KT 10SM CLR 16/M03 A3028 RMK AO2 SLP269 T01561028
Observed Flight Rules
Jan-21 @ 19:56 UTC
(23 minutes ago)
VFR
Wind Visibility
Calm 10 miles
Clouds
  • Clear skies
Temperature Dewpoint
16°C / 61°F -3°C / 27°F
Humidity Altimeter Pressure
27% 30.28" Hg 1026.9 hPa